Saturday, November 17, 2018, 7:16 AM GMT
Back to Local

CWTG, Pointe-Des-Monts , Que.

Location: , , Canada Lat: 49.317
Local Time: 7:16 AM GMT ( 7:16 GMT) Lon: -67.383
Time Zone: GMT Elev: 16 ft

Show me the last for .
Show Coded

Time T Td Feel RH Dir Speed Gust Alt SLP Vis Weather Sky Remarks
2018-11-17 07:00 25 24 19 97 350° 5 - - 29.61 0 None
2018-11-17 06:00 25 25 20 97 360° 5 - - 29.61 0 1-hr Precip Total: 0.04"
2018-11-17 05:00 26 26 21 97 350° 5 - - 29.61 0 None
2018-11-17 04:00 28 28 16 97 70° 16 - - 29.60 0 Peak wind: 25 mph (22 kts) from 70° at 14 min
1-hr Precip Total: 0.04"
2018-11-17 03:00 28 27 15 97 40° 10 17 - 29.61 0 1-hr Precip Total: 0.04"
2018-11-17 02:00 26 25 19 92 10° 7 - - 29.62 0 None
2018-11-17 01:00 28 24 18 86 40° 12 - - 29.65 0 Peak wind: 21 mph (19 kts) from 50° at 19 min
2018-11-17 00:00 26 24 12 90 40° 15 21 - 29.68 0 Peak wind: 24 mph (21 kts) from 50° at 24 min
2018-11-16 23:00 26 25 12 94 50° 21 - - 29.72 0 Peak wind: 24 mph (21 kts) from 50° at 51 min
1-hr Precip Total: 0.04"
2018-11-16 22:00 24 23 16 95 40° 8 - - 29.76 0 None
2018-11-16 21:00 25 26 14 103 80° 12 - - 29.80 0 1-hr Precip Total: 0.04"
2018-11-16 20:00 24 23 12 94 100° 15 - - 29.83 0 Peak wind: 21 mph (19 kts) from 50° at 05 min
2018-11-16 19:00 28 24 15 86 50° 17 - - 29.87 0 Peak wind: 21 mph (19 kts) from 50° at 50 min
2018-11-16 18:00 26 22 15 87 30° 10 - - 29.90 0 None
2018-11-16 17:00 28 21 19 77 20° 8 - - 29.93 0 None
2018-11-16 16:00 26 21 18 81 30° 7 - - 29.98 0 None
2018-11-16 15:00 24 20 16 82 30° 7 - - 30.03 0 None
2018-11-16 14:00 24 18 16 78 20° 6 - - 30.07 0 None
2018-11-16 13:00 23 14 17 67 360° 5 - - 30.10 0 None
2018-11-16 12:00 26 14 19 61 130° 6 - - 30.11 0 None
2018-11-16 11:00 28 11 19 50 180° 8 - - 30.14 0 None
2018-11-16 10:00 28 11 21 48 200° 6 - - 30.16 0 None
2018-11-16 09:00 26 14 17 60 190° 9 - - 30.19 0 None
2018-11-16 08:00 26 15 17 63 190° 8 - - 30.21 0 None

Support USWX by starting your Amazon purchase here.